Time;durP1;ratioP1;P1;durP2;ratioP2;P2;SDS_P1;SDS_P2;PMS_P1;PMS_P2;Temp;Humidity;BMP_temperature;BMP_pressure;BME280_temperature;BME280_humidity;BME280_pressure;Samples;Min_cycle;Max_cycle;Signal;HPM_P1;HPM_P2
2023/01/10 00:01:56;;;;;;;76.55;25.20;;;;;;;6.65;100.00;100337.69;4935397;29;20042;-71
2023/01/10 00:04:22;;;;;;;60.53;20.75;;;;;;;6.62;100.00;100344.22;4935569;29;20020;-71
2023/01/10 00:06:47;;;;;;;57.60;21.33;;;;;;;6.54;100.00;100336.03;4935454;29;20015;-71
2023/01/10 00:09:12;;;;;;;65.05;21.17;;;;;;;6.49;100.00;100349.06;4935792;29;20019;-74
2023/01/10 00:14:22;;;;;;;53.60;20.52;;;;;;;6.51;100.00;100347.06;4946761;29;20023;-73
2023/01/10 00:16:47;;;;;;;63.90;19.15;;;;;;;6.53;100.00;100339.72;4926560;29;20039;-74
2023/01/10 00:19:13;;;;;;;50.95;18.02;;;;;;;6.63;100.00;100353.97;4915795;29;20032;-74
2023/01/10 00:21:38;;;;;;;54.97;18.63;;;;;;;6.55;100.00;100359.22;4914990;29;20024;-74
2023/01/10 00:24:21;;;;;;;46.17;17.48;;;;;;;6.63;100.00;100367.41;4931290;29;20035;-74
2023/01/10 00:26:49;;;;;;;51.53;17.15;;;;;;;6.72;100.00;100366.56;4911061;29;20012;-73
2023/01/10 00:29:19;;;;;;;54.55;16.95;;;;;;;6.59;100.00;100371.41;4915545;29;20535;-74
2023/01/10 00:31:44;;;;;;;55.75;16.45;;;;;;;6.56;100.00;100371.69;4931604;29;20091;-72
2023/01/10 00:34:10;;;;;;;47.50;15.77;;;;;;;6.70;100.00;100363.16;4932365;29;20036;-72
2023/01/10 00:36:35;;;;;;;47.28;15.75;;;;;;;6.62;100.00;100376.47;4918783;29;20530;-72
2023/01/10 00:39:01;;;;;;;65.97;17.75;;;;;;;6.50;100.00;100383.00;4932906;29;20099;-73
2023/01/10 00:44:10;;;;;;;59.25;15.50;;;;;;;6.50;100.00;100394.63;4921155;29;20044;-73
2023/01/10 00:46:36;;;;;;;50.55;14.98;;;;;;;6.56;100.00;100393.19;4930540;29;20396;-74
2023/01/10 00:49:04;;;;;;;53.50;13.32;;;;;;;6.60;100.00;100399.16;4917789;29;20080;-74
2023/01/10 00:51:29;;;;;;;61.30;15.18;;;;;;;6.62;100.00;100398.00;4918320;29;20051;-74
2023/01/10 00:53:55;;;;;;;73.05;16.02;;;;;;;6.57;100.00;100405.66;4917964;29;20092;-74
2023/01/10 00:56:20;;;;;;;49.97;13.10;;;;;;;6.49;100.00;100408.22;4929295;29;20028;-73
2023/01/10 00:58:45;;;;;;;50.15;13.18;;;;;;;6.57;100.00;100416.41;4943442;29;20168;-73
2023/01/10 01:01:11;;;;;;;53.13;14.18;;;;;;;6.59;100.00;100440.50;4919235;29;20227;-72
2023/01/10 01:03:36;;;;;;;42.92;12.75;;;;;;;6.64;100.00;100428.28;4918706;29;20476;-72
2023/01/10 01:06:05;;;;;;;60.47;13.23;;;;;;;6.56;100.00;100438.94;4916162;29;20028;-72
2023/01/10 01:08:31;;;;;;;47.42;13.48;;;;;;;6.60;100.00;100436.81;4916088;29;20229;-72
2023/01/10 01:10:56;;;;;;;45.05;12.68;;;;;;;6.64;100.00;100439.03;4915606;29;20024;-72
2023/01/10 01:13:21;;;;;;;53.05;13.65;;;;;;;6.56;100.00;100447.00;4913467;29;20444;-72
2023/01/10 01:15:48;;;;;;;55.05;13.95;;;;;;;6.48;100.00;100463.00;4917031;29;20032;-72
2023/01/10 01:18:17;;;;;;;44.58;13.02;;;;;;;6.51;100.00;100455.47;4909368;29;20555;-73
2023/01/10 01:20:46;;;;;;;66.75;13.70;;;;;;;6.47;100.00;100469.38;4918215;29;20043;-73
2023/01/10 01:23:13;;;;;;;40.35;11.63;;;;;;;6.64;100.00;100474.03;4919332;29;20036;-73
2023/01/10 01:25:39;;;;;;;44.45;12.85;;;;;;;6.47;100.00;100485.50;4916391;29;20110;-72
2023/01/10 01:28:04;;;;;;;47.83;13.02;;;;;;;6.36;100.00;100491.00;4916100;29;20452;-72
2023/01/10 01:30:29;;;;;;;42.45;12.23;;;;;;;6.25;100.00;100487.47;4916442;29;20079;-73
2023/01/10 01:32:55;;;;;;;51.58;12.18;;;;;;;6.35;100.00;100492.00;4900529;29;20050;-73
2023/01/10 01:35:20;;;;;;;50.80;13.02;;;;;;;6.36;100.00;100504.47;4916271;29;20020;-73
2023/01/10 01:37:46;;;;;;;41.63;12.02;;;;;;;6.41;100.00;100502.22;4900876;29;20115;-73
2023/01/10 01:40:15;;;;;;;46.42;11.63;;;;;;;6.31;100.00;100517.47;4918385;29;20028;-73
2023/01/10 01:42:42;;;;;;;56.42;13.63;;;;;;;6.09;100.00;100519.41;4907288;29;20023;-73
2023/01/10 01:45:07;;;;;;;52.33;12.77;;;;;;;6.08;100.00;100520.41;4918271;29;20035;-73
2023/01/10 01:47:46;;;;;;;51.50;12.10;;;;;;;6.16;100.00;100530.47;4928843;29;20043;-73
2023/01/10 01:50:21;;;;;;;41.42;11.38;;;;;;;6.07;100.00;100537.53;4909306;29;20039;-73
2023/01/10 01:52:50;;;;;;;57.95;14.30;;;;;;;5.98;100.00;100543.72;4904194;29;20050;-74
2023/01/10 01:55:16;;;;;;;39.90;12.38;;;;;;;5.95;100.00;100539.47;4915728;29;20039;-73
2023/01/10 01:57:44;;;;;;;63.35;13.23;;;;;;;6.04;100.00;100553.91;4898999;29;20024;-73
2023/01/10 02:00:10;;;;;;;48.42;15.00;;;;;;;5.96;100.00;100545.69;4914596;29;20024;-73
2023/01/10 02:02:40;;;;;;;42.33;12.63;;;;;;;6.11;100.00;100557.75;4915922;29;20024;-73
2023/01/10 02:05:09;;;;;;;59.55;13.68;;;;;;;5.88;100.00;100556.25;4899990;29;20043;-72
2023/01/10 02:07:42;;;;;;;39.42;12.43;;;;;;;5.92;100.00;100571.13;4905320;29;20020;-72
2023/01/10 02:10:16;;;;;;;37.10;13.45;;;;;;;5.98;100.00;100565.19;4914526;29;20036;-73
2023/01/10 02:12:44;;;;;;;40.42;12.95;;;;;;;6.03;100.00;100578.25;4912565;29;20398;-74
2023/01/10 02:15:10;;;;;;;42.17;12.27;;;;;;;5.85;100.00;100570.78;4901957;29;20118;-73
2023/01/10 02:17:37;;;;;;;48.47;12.98;;;;;;;6.02;100.00;100585.47;4911629;29;20063;-73
2023/01/10 02:20:09;;;;;;;40.88;13.13;;;;;;;6.28;100.00;100587.66;4914724;29;20069;-74
2023/01/10 02:23:02;;;;;;;36.97;12.43;;;;;;;5.98;100.00;100586.69;4915630;29;20032;-74
2023/01/10 02:25:39;;;;;;;40.90;12.02;;;;;;;6.10;100.00;100601.75;4927125;29;20029;-72
2023/01/10 02:28:30;;;;;;;44.78;13.73;;;;;;;6.12;100.00;100599.75;4927149;29;20036;-73
2023/01/10 02:31:10;;;;;;;39.85;12.57;;;;;;;6.03;100.00;100616.72;4911575;29;20032;-73
2023/01/10 02:33:45;;;;;;;50.95;11.93;;;;;;;5.97;100.00;100611.88;4901502;29;20031;-73
2023/01/10 02:36:48;;;;;;;45.38;13.18;;;;;;;5.95;100.00;100617.41;4914236;29;20020;-73
2023/01/10 02:39:35;;;;;;;45.85;12.10;;;;;;;6.03;100.00;100622.09;4920635;28;20048;-73
2023/01/10 02:42:08;;;;;;;46.28;13.57;;;;;;;6.11;100.00;100622.25;4922087;29;20035;-74
2023/01/10 02:44:45;;;;;;;40.80;12.95;;;;;;;6.00;100.00;100627.75;4913915;29;20448;-73
2023/01/10 02:47:12;;;;;;;46.03;13.23;;;;;;;5.77;100.00;100631.53;4914147;29;20111;-72
2023/01/10 02:49:47;;;;;;;36.97;12.45;;;;;;;5.90;100.00;100643.78;4914158;29;20028;-73
2023/01/10 02:52:27;;;;;;;44.85;13.30;;;;;;;6.01;100.00;100640.19;4915894;29;20032;-74
2023/01/10 02:54:58;;;;;;;29.80;11.02;;;;;;;6.18;100.00;100647.59;4913898;29;20600;-72
2023/01/10 02:57:46;;;;;;;43.38;12.70;;;;;;;5.97;100.00;100646.81;4914002;29;20035;-73
2023/01/10 03:00:20;;;;;;;37.70;12.75;;;;;;;5.94;100.00;100649.78;4915090;29;20028;-73
2023/01/10 03:02:56;;;;;;;42.83;11.77;;;;;;;6.10;100.00;100655.50;4929826;29;20028;-73
2023/01/10 03:05:34;;;;;;;46.85;11.90;;;;;;;6.05;100.00;100652.34;4929974;29;20049;-73
2023/01/10 03:08:18;;;;;;;38.58;11.38;;;;;;;6.01;100.00;100655.47;4913906;29;20044;-74
2023/01/10 03:10:53;;;;;;;49.63;12.73;;;;;;;6.20;100.00;100655.56;4934176;28;20068;-74
2023/01/10 03:13:28;;;;;;;47.05;12.43;;;;;;;5.98;100.00;100653.88;4922749;29;20035;-74
2023/01/10 03:15:56;;;;;;;44.30;12.90;;;;;;;5.97;100.00;100654.88;4915232;29;20036;-73
2023/01/10 03:18:47;;;;;;;56.20;11.23;;;;;;;6.01;100.00;100655.47;4916942;29;20038;-73
2023/01/10 03:21:13;;;;;;;47.03;13.60;;;;;;;5.83;100.00;100668.63;4933104;29;20066;-75
2023/01/10 03:23:39;;;;;;;40.15;12.10;;;;;;;6.12;100.00;100663.41;4937736;29;20042;-73
2023/01/10 03:26:08;;;;;;;40.03;11.63;;;;;;;6.08;100.00;100668.22;4904406;29;20024;-74
2023/01/10 03:28:43;;;;;;;53.13;12.68;;;;;;;6.09;100.00;100674.44;4917785;29;20035;-73
2023/01/10 03:31:38;;;;;;;59.90;15.05;;;;;;;5.95;100.00;100672.97;4935108;29;20051;-73
2023/01/10 03:34:04;;;;;;;35.58;11.30;;;;;;;6.11;100.00;100672.47;4901804;29;20142;-73
2023/01/10 03:36:49;;;;;;;40.90;11.57;;;;;;;5.93;100.00;100680.28;4904957;29;20048;-74
2023/01/10 03:39:29;;;;;;;38.45;11.48;;;;;;;5.88;100.00;100685.22;4912715;29;20027;-73
2023/01/10 03:42:14;;;;;;;29.63;10.65;;;;;;;5.77;100.00;100685.28;4919863;29;20042;-73
2023/01/10 03:44:50;;;;;;;37.75;11.75;;;;;;;5.75;100.00;100687.25;4918500;29;20055;-74
2023/01/10 03:47:44;;;;;;;38.10;11.75;;;;;;;5.72;100.00;100689.19;4908968;29;20031;-74
2023/01/10 03:50:12;;;;;;;46.83;11.82;;;;;;;5.73;100.00;100701.63;4917636;29;20023;-74
2023/01/10 03:52:40;;;;;;;43.40;10.90;;;;;;;5.78;100.00;100703.09;4908481;29;20028;-73
2023/01/10 03:55:08;;;;;;;41.45;12.77;;;;;;;5.82;100.00;100721.50;4917128;29;20028;-73
2023/01/10 03:57:34;;;;;;;41.70;12.52;;;;;;;5.78;100.00;100735.31;4909139;29;20024;-73
2023/01/10 03:59:59;;;;;;;42.03;10.82;;;;;;;5.75;100.00;100735.59;4916843;29;20361;-73
2023/01/10 04:02:30;;;;;;;40.58;11.35;;;;;;;5.68;100.00;100735.28;4904585;29;20038;-74
2023/01/10 04:04:56;;;;;;;46.40;12.15;;;;;;;5.51;100.00;100744.75;4925176;29;20495;-74
2023/01/10 04:07:22;;;;;;;38.25;11.45;;;;;;;5.55;100.00;100745.34;4935440;29;20024;-74
2023/01/10 04:09:48;;;;;;;36.28;10.40;;;;;;;5.48;100.00;100745.00;4914612;29;20143;-74
2023/01/10 04:12:13;;;;;;;48.10;11.50;;;;;;;5.45;100.00;100751.47;4934389;29;20032;-74
2023/01/10 04:14:38;;;;;;;31.70;10.60;;;;;;;5.45;100.00;100756.84;4907916;29;20028;-74
2023/01/10 04:17:04;;;;;;;42.53;9.75;;;;;;;5.44;100.00;100759.66;4908765;29;20032;-74
2023/01/10 04:19:30;;;;;;;38.50;9.10;;;;;;;5.39;100.00;100767.25;4920091;29;20070;-74
2023/01/10 04:21:55;;;;;;;27.25;9.18;;;;;;;5.36;100.00;100768.38;4919490;29;20015;-74
2023/01/10 04:24:21;;;;;;;40.33;10.15;;;;;;;5.30;100.00;100768.03;4928724;29;20526;-74
2023/01/10 04:26:46;;;;;;;31.83;10.13;;;;;;;5.39;100.00;100772.59;4936371;29;20019;-74
2023/01/10 04:29:12;;;;;;;28.92;8.98;;;;;;;5.36;100.00;100779.09;4920002;29;20044;-73
2023/01/10 04:31:38;;;;;;;32.10;10.15;;;;;;;5.38;100.00;100793.25;4919359;29;20034;-73
2023/01/10 04:34:05;;;;;;;28.10;9.05;;;;;;;5.32;100.00;100798.25;4919067;29;20034;-73
2023/01/10 04:36:30;;;;;;;40.65;8.80;;;;;;;5.43;100.00;100795.56;4916354;29;20027;-74
2023/01/10 04:38:56;;;;;;;43.28;10.35;;;;;;;5.53;100.00;100801.84;4914470;29;20035;-74
2023/01/10 04:41:21;;;;;;;34.17;8.35;;;;;;;5.58;100.00;100810.38;4908185;29;20039;-74
2023/01/10 04:43:48;;;;;;;25.20;7.65;;;;;;;5.52;100.00;100815.41;4907994;29;20039;-74
2023/01/10 04:46:14;;;;;;;35.92;8.25;;;;;;;5.46;100.00;100816.75;4923245;29;20122;-74
2023/01/10 04:48:39;;;;;;;35.08;8.05;;;;;;;5.59;100.00;100817.44;4911913;29;20171;-74
2023/01/10 04:51:05;;;;;;;30.27;8.90;;;;;;;5.53;100.00;100817.97;4919497;29;20050;-74
2023/01/10 04:53:30;;;;;;;38.75;9.13;;;;;;;5.43;100.00;100830.47;4917411;29;20099;-74
2023/01/10 04:56:02;;;;;;;38.90;8.32;;;;;;;5.56;100.00;100828.47;4913787;29;20027;-74
2023/01/10 04:58:27;;;;;;;;;;;;;;;5.50;100.00;100833.50;4919066;29;20067;-74
2023/01/10 05:00:53;;;;;;;36.35;7.55;;;;;;;5.53;100.00;100838.59;4918659;29;19959;-75
2023/01/10 05:03:19;;;;;;;47.15;9.07;;;;;;;5.57;100.00;100838.22;4905701;29;20050;-74
2023/01/10 05:05:44;;;;;;;34.40;9.25;;;;;;;5.48;100.00;100836.31;4925552;29;20036;-74
2023/01/10 05:08:09;;;;;;;33.05;8.63;;;;;;;5.55;100.00;100842.03;4910840;29;20047;-74
2023/01/10 05:10:35;;;;;;;42.53;7.68;;;;;;;5.53;100.00;100850.19;4918565;29;20403;-74
2023/01/10 05:13:00;;;;;;;29.15;7.38;;;;;;;5.61;100.00;100853.13;4918747;29;20028;-73
2023/01/10 05:15:26;;;;;;;32.55;7.10;;;;;;;5.56;100.00;100858.00;4900336;29;20513;-74
2023/01/10 05:17:57;;;;;;;30.15;7.20;;;;;;;5.53;100.00;100860.06;4912896;29;20091;-74
2023/01/10 05:20:22;;;;;;;51.22;7.90;;;;;;;5.63;100.00;100861.88;4925521;29;20087;-74
2023/01/10 05:22:48;;;;;;;39.60;7.70;;;;;;;5.63;100.00;100866.41;4907253;29;20032;-74
2023/01/10 05:25:13;;;;;;;29.05;6.45;;;;;;;5.77;100.00;100867.94;4915057;29;20107;-74
2023/01/10 05:27:42;;;;;;;35.85;6.65;;;;;;;5.85;100.00;100881.59;4899609;29;20572;-74
2023/01/10 05:30:11;;;;;;;49.33;8.43;;;;;;;5.76;100.00;100879.69;4906856;29;20062;-75
2023/01/10 05:32:37;;;;;;;39.80;7.28;;;;;;;5.73;100.00;100889.69;4918713;29;20020;-74
2023/01/10 05:35:03;;;;;;;37.13;7.82;;;;;;;5.85;100.00;100886.97;4928165;29;20020;-75
2023/01/10 05:37:29;;;;;;;35.42;7.70;;;;;;;5.71;100.00;100902.41;4907125;29;20079;-75
2023/01/10 05:39:54;;;;;;;27.45;6.32;;;;;;;5.83;100.00;100899.69;4899443;29;20020;-74
2023/01/10 05:42:19;;;;;;;34.83;5.95;;;;;;;5.81;100.00;100907.03;4908456;29;20079;-75
2023/01/10 05:44:44;;;;;;;29.38;6.68;;;;;;;5.83;100.00;100910.44;4912485;29;20054;-75
2023/01/10 05:47:10;;;;;;;31.45;6.65;;;;;;;5.88;100.00;100913.59;4906997;29;20027;-74
2023/01/10 05:49:35;;;;;;;37.85;6.78;;;;;;;5.89;100.00;100915.28;4927491;29;20031;-74
2023/01/10 05:52:00;;;;;;;34.28;6.43;;;;;;;5.64;100.00;100917.31;4918023;29;20039;-74
2023/01/10 05:54:28;;;;;;;34.40;6.13;;;;;;;5.75;100.00;100923.66;4907795;29;20028;-74
2023/01/10 05:56:53;;;;;;;35.35;6.78;;;;;;;5.63;100.00;100926.34;4912204;29;20039;-74
2023/01/10 05:59:19;;;;;;;35.88;6.40;;;;;;;5.75;100.00;100934.41;4916505;29;20031;-74
2023/01/10 06:01:44;;;;;;;40.15;5.72;;;;;;;5.75;100.00;100934.41;4903307;29;20042;-75
2023/01/10 06:04:09;;;;;;;34.50;6.35;;;;;;;5.72;100.00;100949.75;4904783;29;20028;-74
2023/01/10 06:06:35;;;;;;;29.55;5.25;;;;;;;5.85;100.00;100951.44;4909236;29;20028;-74
2023/01/10 06:09:00;;;;;;;38.83;6.65;;;;;;;5.69;100.00;100958.09;4910003;29;20023;-75
2023/01/10 06:11:28;;;;;;;50.85;6.63;;;;;;;5.65;100.00;100953.94;4916816;29;20082;-75
2023/01/10 06:13:56;;;;;;;31.67;5.70;;;;;;;5.69;100.00;100958.09;4909521;29;20026;-74
2023/01/10 06:16:21;;;;;;;49.50;7.53;;;;;;;5.49;100.00;100958.00;4909623;29;20034;-74
2023/01/10 06:18:47;;;;;;;33.10;7.30;;;;;;;5.60;100.00;100963.34;4917313;29;20061;-74
2023/01/10 06:21:12;;;;;;;34.83;6.63;;;;;;;5.66;100.00;100962.84;4918715;29;20032;-74
2023/01/10 06:23:38;;;;;;;37.22;7.03;;;;;;;5.65;100.00;100956.63;4894180;29;20120;-75
2023/01/10 06:26:04;;;;;;;30.60;6.43;;;;;;;5.62;100.00;100972.16;4917571;29;20584;-75
2023/01/10 06:28:29;;;;;;;39.75;6.00;;;;;;;5.54;100.00;100986.19;4915786;29;20016;-74
2023/01/10 06:30:55;;;;;;;41.13;7.18;;;;;;;5.42;100.00;100987.16;4926286;29;20023;-74
2023/01/10 06:33:20;;;;;;;28.80;5.63;;;;;;;5.49;100.00;101001.81;4909733;29;20028;-74
2023/01/10 06:35:47;;;;;;;47.67;7.68;;;;;;;5.58;100.00;101003.75;4925276;29;20106;-74
2023/01/10 06:38:13;;;;;;;33.83;6.50;;;;;;;5.47;100.00;100994.84;4917253;29;20024;-74
2023/01/10 06:40:38;;;;;;;28.55;5.75;;;;;;;5.48;100.00;101002.78;4908933;29;20027;-74
2023/01/10 06:43:03;;;;;;;36.95;8.05;;;;;;;5.43;100.00;101005.84;4919412;29;20400;-74
2023/01/10 06:45:29;;;;;;;31.08;6.15;;;;;;;5.41;100.00;101009.59;4914360;29;20025;-74
2023/01/10 06:47:54;;;;;;;50.58;7.72;;;;;;;5.53;100.00;101011.31;4920773;29;20020;-73
2023/01/10 06:50:20;;;;;;;38.15;7.10;;;;;;;5.45;100.00;101008.41;4905997;29;20024;-74
2023/01/10 06:52:45;;;;;;;42.70;6.43;;;;;;;5.42;100.00;101016.72;4902302;29;20060;-75
2023/01/10 06:55:11;;;;;;;40.13;6.55;;;;;;;5.44;100.00;101012.06;4916772;29;20448;-74
2023/01/10 06:57:37;;;;;;;37.35;8.05;;;;;;;5.30;100.00;101025.72;4915847;29;20059;-75
2023/01/10 07:00:08;;;;;;;34.95;6.20;;;;;;;5.36;100.00;101020.72;4911312;29;20032;-74
2023/01/10 07:02:34;;;;;;;36.78;6.43;;;;;;;5.43;100.00;101037.22;4913445;29;20161;-74
2023/01/10 07:04:59;;;;;;;37.60;6.95;;;;;;;5.32;100.00;101029.13;4900110;29;20024;-74
2023/01/10 07:07:24;;;;;;;42.83;7.53;;;;;;;5.45;100.00;101046.00;4916161;29;20087;-75
2023/01/10 07:09:50;;;;;;;39.22;7.13;;;;;;;5.36;100.00;101046.72;4912834;29;20387;-75
2023/01/10 07:12:15;;;;;;;41.00;7.40;;;;;;;5.34;100.00;101048.66;4914618;29;20063;-74
2023/01/10 07:14:40;;;;;;;45.20;9.15;;;;;;;5.41;100.00;101055.25;4917934;29;20115;-75
2023/01/10 07:17:06;;;;;;;37.22;8.32;;;;;;;5.28;100.00;101054.50;4902073;29;20020;-75
2023/01/10 07:19:31;;;;;;;42.13;8.45;;;;;;;5.31;100.00;101059.66;4899867;29;20031;-75
2023/01/10 07:21:56;;;;;;;39.63;7.38;;;;;;;5.39;100.00;101046.47;4902356;29;20027;-75
2023/01/10 07:24:22;;;;;;;45.67;7.78;;;;;;;5.40;100.00;101054.41;4919871;29;20016;-75
2023/01/10 07:26:47;;;;;;;42.60;7.72;;;;;;;5.60;100.00;101060.88;4902812;29;20078;-75
2023/01/10 07:29:12;;;;;;;42.55;6.70;;;;;;;5.67;100.00;101056.75;4905279;29;20023;-76
2023/01/10 07:31:38;;;;;;;47.45;8.40;;;;;;;5.67;100.00;101061.25;4914415;29;20064;-76
2023/01/10 07:34:03;;;;;;;44.90;8.15;;;;;;;5.70;100.00;101072.63;4895411;29;20064;-73
2023/01/10 07:36:28;;;;;;;37.00;7.57;;;;;;;5.73;100.00;101066.97;4920469;29;20032;-73
2023/01/10 07:38:54;;;;;;;45.25;8.32;;;;;;;5.66;100.00;101060.41;4913905;29;20026;-73
2023/01/10 07:41:19;;;;;;;42.78;8.13;;;;;;;5.61;100.00;101067.13;4914176;29;20115;-71
2023/01/10 07:43:45;;;;;;;45.70;7.53;;;;;;;5.71;100.00;101066.25;4898753;29;20475;-72
2023/01/10 07:46:11;;;;;;;43.70;6.93;;;;;;;5.86;100.00;101071.38;4898746;29;20032;-73
2023/01/10 07:48:37;;;;;;;39.17;8.43;;;;;;;5.86;100.00;101076.75;4907416;29;20020;-73
2023/01/10 07:51:04;;;;;;;45.15;7.80;;;;;;;5.91;100.00;101079.97;4914508;29;20027;-72
2023/01/10 07:53:30;;;;;;;37.50;6.68;;;;;;;5.85;100.00;101091.16;4900673;29;20024;-71
2023/01/10 07:56:00;;;;;;;41.08;7.88;;;;;;;5.77;100.00;101088.25;4912081;29;20028;-71
2023/01/10 07:58:26;;;;;;;45.03;8.25;;;;;;;5.79;100.00;101091.66;4901878;29;20032;-72
2023/01/10 08:00:51;;;;;;;39.10;8.45;;;;;;;5.78;100.00;101087.25;4894610;29;20065;-72
2023/01/10 08:03:17;;;;;;;42.60;7.47;;;;;;;5.84;100.00;101089.47;4899113;29;20032;-71
2023/01/10 08:05:43;;;;;;;52.15;8.15;;;;;;;5.87;100.00;101090.09;4894549;29;20016;-73
2023/01/10 08:08:10;;;;;;;36.33;8.10;;;;;;;6.03;100.00;101078.13;4898505;29;20047;-75
2023/01/10 08:10:37;;;;;;;52.55;9.55;;;;;;;5.96;100.00;101097.44;4902350;29;20396;-71
2023/01/10 08:13:03;;;;;;;52.70;8.57;;;;;;;6.03;100.00;101089.72;4917605;29;20024;-71
2023/01/10 08:15:29;;;;;;;45.92;7.88;;;;;;;6.00;100.00;101095.38;4921397;29;20046;-73
2023/01/10 08:17:58;;;;;;;33.75;8.30;;;;;;;5.86;100.00;101095.56;4907354;29;20028;-73
2023/01/10 08:20:24;;;;;;;41.28;9.02;;;;;;;5.78;100.00;101096.19;4917310;29;20079;-73
2023/01/10 08:22:49;;;;;;;51.50;8.80;;;;;;;5.72;100.00;101092.16;4909478;29;20028;-72
2023/01/10 08:25:15;;;;;;;44.78;8.35;;;;;;;5.79;100.00;101107.78;4908418;29;20047;-72
2023/01/10 08:27:43;;;;;;;37.97;8.23;;;;;;;5.87;100.00;101110.75;4911507;29;20027;-72
2023/01/10 08:30:09;;;;;;;37.10;9.13;;;;;;;5.87;100.00;101116.13;4907739;29;20126;-72
2023/01/10 08:32:35;;;;;;;51.60;9.27;;;;;;;5.88;100.00;101118.66;4925456;29;20027;-72
2023/01/10 08:35:00;;;;;;;41.45;9.35;;;;;;;5.80;100.00;101128.28;4909039;29;20023;-72
2023/01/10 08:37:26;;;;;;;39.45;9.27;;;;;;;5.76;100.00;101124.16;4908245;29;20024;-73
2023/01/10 08:39:51;;;;;;;52.88;9.73;;;;;;;5.81;100.00;101121.97;4900596;29;20090;-73
2023/01/10 08:42:17;;;;;;;48.22;9.68;;;;;;;5.86;100.00;101125.13;4896666;29;20052;-72
2023/01/10 08:44:43;;;;;;;43.95;8.70;;;;;;;5.93;100.00;101143.38;4901595;29;20059;-72
2023/01/10 08:47:09;;;;;;;50.15;11.50;;;;;;;6.03;100.00;101131.88;4892987;29;20035;-72
2023/01/10 08:49:34;;;;;;;36.53;9.32;;;;;;;6.00;100.00;101133.00;4897654;29;20032;-73
2023/01/10 08:52:01;;;;;;;36.50;9.20;;;;;;;6.06;100.00;101143.22;4892826;29;20095;-72
2023/01/10 08:54:26;;;;;;;45.70;9.20;;;;;;;6.05;100.00;101146.91;4901702;29;20464;-74
2023/01/10 08:56:51;;;;;;;39.10;9.77;;;;;;;5.97;100.00;101154.72;4909753;29;20035;-73
2023/01/10 08:59:17;;;;;;;53.33;10.38;;;;;;;5.94;100.00;101163.06;4910708;29;20036;-73
2023/01/10 09:01:42;;;;;;;46.25;10.45;;;;;;;5.96;100.00;101163.78;4915519;29;20024;-72
2023/01/10 09:04:07;;;;;;;33.17;9.02;;;;;;;5.99;100.00;101158.13;4893270;29;20028;-72
2023/01/10 09:06:33;;;;;;;38.92;9.50;;;;;;;5.99;100.00;101158.13;4897759;29;20027;-73
2023/01/10 09:08:58;;;;;;;39.63;12.30;;;;;;;6.04;100.00;101160.47;4897339;29;20034;-71
2023/01/10 09:11:24;;;;;;;42.15;11.93;;;;;;;6.01;100.00;101145.47;4915303;29;20063;-73
2023/01/10 09:13:50;;;;;;;53.13;12.93;;;;;;;6.07;100.00;101123.47;4895652;29;20076;-72
2023/01/10 09:16:16;;;;;;;59.65;13.93;;;;;;;6.04;100.00;101117.47;4892392;29;20032;-74
2023/01/10 09:18:41;;;;;;;41.13;13.00;;;;;;;6.28;100.00;101136.16;4923182;29;20058;-73
2023/01/10 09:21:07;;;;;;;37.35;11.60;;;;;;;6.41;100.00;101126.09;4895805;29;20403;-72
2023/01/10 09:23:32;;;;;;;44.40;10.75;;;;;;;6.43;100.00;101134.91;4901663;29;20024;-73
2023/01/10 09:25:59;;;;;;;37.80;12.52;;;;;;;6.38;100.00;101131.72;4934752;28;20020;-72
2023/01/10 09:28:24;;;;;;;39.95;12.05;;;;;;;6.40;100.00;101135.16;4893631;29;20060;-72
2023/01/10 09:30:49;;;;;;;45.05;12.23;;;;;;;6.28;100.00;101146.91;4926933;29;20028;-73
2023/01/10 09:33:15;;;;;;;52.97;14.02;;;;;;;6.33;100.00;101156.31;4910352;29;20031;-73
2023/01/10 09:35:41;;;;;;;32.92;11.45;;;;;;;6.35;100.00;101148.13;4917165;29;20027;-73
2023/01/10 09:38:11;;;;;;;54.75;12.70;;;;;;;6.33;100.00;101133.94;4903823;29;20082;-73
2023/01/10 09:40:42;;;;;;;37.10;11.38;;;;;;;6.20;100.00;101151.06;4909057;29;20047;-73
2023/01/10 09:43:14;;;;;;;51.25;12.85;;;;;;;6.27;100.00;101174.78;4927200;28;20032;-73
2023/01/10 09:45:48;;;;;;;;;;;;;;;6.21;100.00;101195.78;4914038;29;20047;-74
2023/01/10 09:49:03;;;;;;;46.22;11.32;;;;;;;6.48;100.00;101186.50;4920911;29;20009;-74
2023/01/10 09:51:37;;;;;;;36.83;11.52;;;;;;;6.48;100.00;101194.56;4901403;29;20080;-74
2023/01/10 09:54:10;;;;;;;39.50;11.55;;;;;;;6.53;100.00;101205.81;4938111;29;20038;-75
2023/01/10 09:56:36;;;;;;;37.28;10.98;;;;;;;6.53;100.00;101205.81;4905820;29;20038;-73
2023/01/10 09:59:02;;;;;;;34.75;11.60;;;;;;;6.42;100.00;101208.50;4921021;29;20821;-73
2023/01/10 10:01:37;;;;;;;42.85;11.60;;;;;;;6.21;100.00;101209.25;4921799;29;20038;-74
2023/01/10 10:04:33;;;;;;;41.28;11.57;;;;;;;6.29;100.00;101211.31;4907080;29;20031;-73
2023/01/10 10:06:59;;;;;;;50.42;11.90;;;;;;;6.30;100.00;101214.84;4899459;29;20114;-73
2023/01/10 10:09:28;;;;;;;41.63;12.00;;;;;;;6.20;100.00;101215.59;4907402;29;20123;-75
2023/01/10 10:12:08;;;;;;;52.30;11.82;;;;;;;6.29;100.00;101213.16;4915848;29;20108;-72
2023/01/10 10:15:08;;;;;;;30.60;12.13;;;;;;;6.17;100.00;101215.81;4900765;29;20095;-73
2023/01/10 10:17:39;;;;;;;49.70;11.65;;;;;;;6.20;100.00;101215.59;4896995;29;20043;-73
2023/01/10 10:20:43;;;;;;;52.40;12.95;;;;;;;6.20;100.00;101215.59;4927511;29;20125;-73
2023/01/10 10:23:43;;;;;;;44.72;12.63;;;;;;;6.29;100.00;101223.91;4915615;29;20042;-73
2023/01/10 10:26:25;;;;;;;52.08;11.63;;;;;;;6.36;100.00;101219.75;4911160;29;20027;-73
2023/01/10 10:29:15;;;;;;;45.78;12.95;;;;;;;6.44;100.00;101218.13;4908799;29;20457;-73
2023/01/10 10:32:02;;;;;;;31.98;10.80;;;;;;;6.52;100.00;101209.47;4925355;29;20050;-73
2023/01/10 10:34:37;;;;;;;42.50;13.30;;;;;;;6.41;100.00;101220.25;4921046;29;20127;-73
2023/01/10 10:37:31;;;;;;;45.70;13.48;;;;;;;6.30;100.00;101221.09;4914035;29;20032;-74
2023/01/10 10:40:01;;;;;;;42.63;12.95;;;;;;;6.35;100.00;101207.28;4912567;29;20028;-74
2023/01/10 10:42:40;;;;;;;57.95;15.75;;;;;;;6.22;100.00;101207.41;4915669;29;20483;-74
2023/01/10 10:45:20;;;;;;;48.20;15.48;;;;;;;6.22;100.00;101202.88;4907689;29;20114;-73
2023/01/10 10:47:54;;;;;;;45.13;15.57;;;;;;;6.27;100.00;101225.88;4924537;29;20479;-72
2023/01/10 10:50:30;;;;;;;58.38;14.98;;;;;;;6.31;100.00;101221.94;4915356;29;20043;-75
2023/01/10 10:52:56;;;;;;;44.95;14.90;;;;;;;6.38;100.00;101228.53;4907827;29;20169;-73
2023/01/10 10:55:30;;;;;;;50.45;17.02;;;;;;;6.24;100.00;101233.19;4914450;29;20032;-73
2023/01/10 10:57:58;;;;;;;43.13;15.95;;;;;;;6.27;100.00;101220.50;4903256;29;20024;-74
2023/01/10 11:00:28;;;;;;;41.42;14.80;;;;;;;6.38;100.00;101232.06;4923913;29;20082;-75
2023/01/10 11:03:02;;;;;;;52.75;16.52;;;;;;;6.27;100.00;101225.88;4918854;29;20028;-72
2023/01/10 11:05:35;;;;;;;56.40;15.35;;;;;;;6.33;100.00;101225.38;4908135;29;20047;-74
2023/01/10 11:08:07;;;;;;;44.72;16.58;;;;;;;6.24;100.00;101225.13;4916719;29;20020;-72
2023/01/10 11:10:35;;;;;;;43.25;14.90;;;;;;;6.22;100.00;101229.75;4924300;29;20031;-74
2023/01/10 11:13:22;;;;;;;48.00;15.48;;;;;;;6.31;100.00;101235.38;4954103;28;20600;-73
2023/01/10 11:15:48;;;;;;;58.25;15.60;;;;;;;6.55;100.00;101230.75;4936402;29;20130;-72
2023/01/10 11:18:17;;;;;;;42.92;15.07;;;;;;;6.32;100.00;101229.88;4896400;29;20067;-72
2023/01/10 11:21:10;;;;;;;47.92;15.18;;;;;;;6.43;100.00;101237.94;4916021;29;20437;-74
2023/01/10 11:23:52;;;;;;;55.47;15.02;;;;;;;6.56;100.00;101237.81;4903808;29;20051;-73
2023/01/10 11:26:33;;;;;;;55.63;15.18;;;;;;;6.42;100.00;101235.41;4893372;29;20039;-74
2023/01/10 11:29:26;;;;;;;53.70;16.17;;;;;;;6.40;100.00;101240.06;4890510;29;20508;-73